sensor_id;sensor_type;location;lat;lon;timestamp;temperature;humidity
13093;DHT22;6612;49.568;11.000;2024-02-14T00:00:55;5.90;68.60
13093;DHT22;6612;49.568;11.000;2024-02-14T00:03:22;5.90;68.70
13093;DHT22;6612;49.568;11.000;2024-02-14T00:05:49;5.90;68.80
13093;DHT22;6612;49.568;11.000;2024-02-14T00:08:18;5.90;68.80
13093;DHT22;6612;49.568;11.000;2024-02-14T00:10:44;6.00;68.90
13093;DHT22;6612;49.568;11.000;2024-02-14T00:13:12;6.00;69.00
13093;DHT22;6612;49.568;11.000;2024-02-14T00:15:40;6.00;68.90
13093;DHT22;6612;49.568;11.000;2024-02-14T00:18:08;6.00;68.90
13093;DHT22;6612;49.568;11.000;2024-02-14T00:20:36;6.00;68.80
13093;DHT22;6612;49.568;11.000;2024-02-14T00:23:04;6.00;68.80
13093;DHT22;6612;49.568;11.000;2024-02-14T00:25:31;6.00;68.70
13093;DHT22;6612;49.568;11.000;2024-02-14T00:27:58;6.00;68.70
13093;DHT22;6612;49.568;11.000;2024-02-14T00:30:26;6.00;68.80
13093;DHT22;6612;49.568;11.000;2024-02-14T00:32:53;5.90;68.80
13093;DHT22;6612;49.568;11.000;2024-02-14T00:35:21;5.90;69.00
13093;DHT22;6612;49.568;11.000;2024-02-14T00:37:48;5.90;69.10
13093;DHT22;6612;49.568;11.000;2024-02-14T00:40:16;5.90;69.30
13093;DHT22;6612;49.568;11.000;2024-02-14T00:42:43;6.00;69.40
13093;DHT22;6612;49.568;11.000;2024-02-14T00:45:10;6.00;69.60
13093;DHT22;6612;49.568;11.000;2024-02-14T00:47:37;6.00;69.90
13093;DHT22;6612;49.568;11.000;2024-02-14T00:50:05;6.00;70.00
13093;DHT22;6612;49.568;11.000;2024-02-14T00:52:34;6.00;70.10
13093;DHT22;6612;49.568;11.000;2024-02-14T00:55:01;6.10;70.20
13093;DHT22;6612;49.568;11.000;2024-02-14T00:57:29;6.10;70.30
13093;DHT22;6612;49.568;11.000;2024-02-14T00:59:56;6.20;70.30
13093;DHT22;6612;49.568;11.000;2024-02-14T01:02:23;6.20;70.30
13093;DHT22;6612;49.568;11.000;2024-02-14T01:04:51;6.20;70.30
13093;DHT22;6612;49.568;11.000;2024-02-14T01:07:18;6.20;70.20
13093;DHT22;6612;49.568;11.000;2024-02-14T01:09:47;6.30;70.10
13093;DHT22;6612;49.568;11.000;2024-02-14T01:12:14;6.30;70.00
13093;DHT22;6612;49.568;11.000;2024-02-14T01:14:41;6.30;70.00
13093;DHT22;6612;49.568;11.000;2024-02-14T01:17:09;6.30;70.00
13093;DHT22;6612;49.568;11.000;2024-02-14T01:19:36;6.30;69.90
13093;DHT22;6612;49.568;11.000;2024-02-14T01:22:03;6.30;69.90
13093;DHT22;6612;49.568;11.000;2024-02-14T01:24:30;6.30;70.00
13093;DHT22;6612;49.568;11.000;2024-02-14T01:26:59;6.40;70.10
13093;DHT22;6612;49.568;11.000;2024-02-14T01:29:26;6.30;70.00
13093;DHT22;6612;49.568;11.000;2024-02-14T01:31:53;6.40;70.10
13093;DHT22;6612;49.568;11.000;2024-02-14T01:34:20;6.40;70.00
13093;DHT22;6612;49.568;11.000;2024-02-14T01:36:48;6.40;69.90
13093;DHT22;6612;49.568;11.000;2024-02-14T01:39:15;6.40;69.80
13093;DHT22;6612;49.568;11.000;2024-02-14T01:41:44;6.40;69.70
13093;DHT22;6612;49.568;11.000;2024-02-14T01:44:15;6.40;69.50
13093;DHT22;6612;49.568;11.000;2024-02-14T01:46:42;6.40;69.30
13093;DHT22;6612;49.568;11.000;2024-02-14T01:49:10;6.40;69.20
13093;DHT22;6612;49.568;11.000;2024-02-14T01:51:39;6.40;69.00
13093;DHT22;6612;49.568;11.000;2024-02-14T01:54:07;6.40;69.00
13093;DHT22;6612;49.568;11.000;2024-02-14T01:56:35;6.40;69.00
13093;DHT22;6612;49.568;11.000;2024-02-14T01:59:02;6.40;69.10
13093;DHT22;6612;49.568;11.000;2024-02-14T02:01:31;6.30;69.20
13093;DHT22;6612;49.568;11.000;2024-02-14T02:03:59;6.30;69.30
13093;DHT22;6612;49.568;11.000;2024-02-14T02:06:26;6.30;69.60
13093;DHT22;6612;49.568;11.000;2024-02-14T02:08:54;6.30;70.40
13093;DHT22;6612;49.568;11.000;2024-02-14T02:11:21;6.30;69.80
13093;DHT22;6612;49.568;11.000;2024-02-14T02:13:49;6.40;70.00
13093;DHT22;6612;49.568;11.000;2024-02-14T02:16:16;6.40;69.90
13093;DHT22;6612;49.568;11.000;2024-02-14T02:18:46;6.40;69.90
13093;DHT22;6612;49.568;11.000;2024-02-14T02:21:14;6.40;69.90
13093;DHT22;6612;49.568;11.000;2024-02-14T02:23:42;6.40;70.00
13093;DHT22;6612;49.568;11.000;2024-02-14T02:26:10;6.40;70.00
13093;DHT22;6612;49.568;11.000;2024-02-14T02:28:38;6.40;70.20
13093;DHT22;6612;49.568;11.000;2024-02-14T02:31:06;6.40;70.40
13093;DHT22;6612;49.568;11.000;2024-02-14T02:33:34;6.40;70.40
13093;DHT22;6612;49.568;11.000;2024-02-14T02:36:01;6.40;70.50
13093;DHT22;6612;49.568;11.000;2024-02-14T02:38:28;6.50;70.70
13093;DHT22;6612;49.568;11.000;2024-02-14T02:40:57;6.50;70.80
13093;DHT22;6612;49.568;11.000;2024-02-14T02:43:24;6.50;70.70
13093;DHT22;6612;49.568;11.000;2024-02-14T02:45:51;6.50;70.70
13093;DHT22;6612;49.568;11.000;2024-02-14T02:48:18;6.60;70.70
13093;DHT22;6612;49.568;11.000;2024-02-14T02:50:48;6.60;70.60
13093;DHT22;6612;49.568;11.000;2024-02-14T02:53:16;6.60;70.60
13093;DHT22;6612;49.568;11.000;2024-02-14T02:55:43;6.60;70.60
13093;DHT22;6612;49.568;11.000;2024-02-14T02:58:12;6.60;70.50
13093;DHT22;6612;49.568;11.000;2024-02-14T03:00:39;6.70;70.50
13093;DHT22;6612;49.568;11.000;2024-02-14T03:03:07;6.70;70.50
13093;DHT22;6612;49.568;11.000;2024-02-14T03:05:34;6.70;70.40
13093;DHT22;6612;49.568;11.000;2024-02-14T03:08:01;6.70;70.50
13093;DHT22;6612;49.568;11.000;2024-02-14T03:10:28;6.70;70.60
13093;DHT22;6612;49.568;11.000;2024-02-14T03:12:56;6.70;70.60
13093;DHT22;6612;49.568;11.000;2024-02-14T03:15:24;6.70;70.70
13093;DHT22;6612;49.568;11.000;2024-02-14T03:17:52;6.70;70.60
13093;DHT22;6612;49.568;11.000;2024-02-14T03:20:19;6.80;70.80
13093;DHT22;6612;49.568;11.000;2024-02-14T03:22:46;6.80;70.60
13093;DHT22;6612;49.568;11.000;2024-02-14T03:25:13;6.80;70.40
13093;DHT22;6612;49.568;11.000;2024-02-14T03:27:42;6.70;70.20
13093;DHT22;6612;49.568;11.000;2024-02-14T03:30:11;6.80;70.20
13093;DHT22;6612;49.568;11.000;2024-02-14T03:32:43;6.70;70.10
13093;DHT22;6612;49.568;11.000;2024-02-14T03:35:11;6.80;70.00
13093;DHT22;6612;49.568;11.000;2024-02-14T03:37:39;6.70;69.80
13093;DHT22;6612;49.568;11.000;2024-02-14T03:40:07;6.70;69.70
13093;DHT22;6612;49.568;11.000;2024-02-14T03:42:35;6.70;69.60
13093;DHT22;6612;49.568;11.000;2024-02-14T03:45:06;6.70;69.70
13093;DHT22;6612;49.568;11.000;2024-02-14T03:47:33;6.70;69.70
13093;DHT22;6612;49.568;11.000;2024-02-14T03:50:02;6.70;69.80
13093;DHT22;6612;49.568;11.000;2024-02-14T03:52:30;6.70;69.90
13093;DHT22;6612;49.568;11.000;2024-02-14T03:54:58;6.60;69.90
13093;DHT22;6612;49.568;11.000;2024-02-14T03:57:26;6.60;69.90
13093;DHT22;6612;49.568;11.000;2024-02-14T03:59:54;6.60;69.80
13093;DHT22;6612;49.568;11.000;2024-02-14T04:02:21;6.60;69.70
13093;DHT22;6612;49.568;11.000;2024-02-14T04:04:49;6.60;69.60
13093;DHT22;6612;49.568;11.000;2024-02-14T04:07:17;6.60;69.50
13093;DHT22;6612;49.568;11.000;2024-02-14T04:09:44;6.60;69.40
13093;DHT22;6612;49.568;11.000;2024-02-14T04:12:11;6.50;69.40
13093;DHT22;6612;49.568;11.000;2024-02-14T04:14:39;6.50;69.70
13093;DHT22;6612;49.568;11.000;2024-02-14T04:17:06;6.50;69.60
13093;DHT22;6612;49.568;11.000;2024-02-14T04:19:34;6.50;69.60
13093;DHT22;6612;49.568;11.000;2024-02-14T04:22:01;6.50;69.60
13093;DHT22;6612;49.568;11.000;2024-02-14T04:24:29;6.40;69.50
13093;DHT22;6612;49.568;11.000;2024-02-14T04:26:59;6.40;69.50
13093;DHT22;6612;49.568;11.000;2024-02-14T04:29:28;6.40;69.80
13093;DHT22;6612;49.568;11.000;2024-02-14T04:31:58;6.40;69.90
13093;DHT22;6612;49.568;11.000;2024-02-14T04:34:25;6.40;70.00
13093;DHT22;6612;49.568;11.000;2024-02-14T04:36:53;6.40;70.10
13093;DHT22;6612;49.568;11.000;2024-02-14T04:39:20;6.40;70.90
13093;DHT22;6612;49.568;11.000;2024-02-14T04:41:48;6.40;70.20
13093;DHT22;6612;49.568;11.000;2024-02-14T04:44:15;6.40;70.40
13093;DHT22;6612;49.568;11.000;2024-02-14T04:46:42;6.40;70.80
13093;DHT22;6612;49.568;11.000;2024-02-14T04:49:10;6.50;71.10
13093;DHT22;6612;49.568;11.000;2024-02-14T04:51:38;6.50;71.40
13093;DHT22;6612;49.568;11.000;2024-02-14T04:54:05;6.50;71.60
13093;DHT22;6612;49.568;11.000;2024-02-14T04:56:33;6.60;71.90
13093;DHT22;6612;49.568;11.000;2024-02-14T04:59:01;6.60;72.00
13093;DHT22;6612;49.568;11.000;2024-02-14T05:01:28;6.70;72.10
13093;DHT22;6612;49.568;11.000;2024-02-14T05:03:55;6.80;72.30
13093;DHT22;6612;49.568;11.000;2024-02-14T05:06:22;6.80;72.40
13093;DHT22;6612;49.568;11.000;2024-02-14T05:08:49;6.90;72.30
13093;DHT22;6612;49.568;11.000;2024-02-14T05:11:17;6.90;72.30
13093;DHT22;6612;49.568;11.000;2024-02-14T05:13:44;7.00;72.30
13093;DHT22;6612;49.568;11.000;2024-02-14T05:16:13;7.00;72.20
13093;DHT22;6612;49.568;11.000;2024-02-14T05:18:44;7.10;71.90
13093;DHT22;6612;49.568;11.000;2024-02-14T05:21:12;7.10;71.70
13093;DHT22;6612;49.568;11.000;2024-02-14T05:23:39;7.10;71.50
13093;DHT22;6612;49.568;11.000;2024-02-14T05:26:06;7.20;71.40
13093;DHT22;6612;49.568;11.000;2024-02-14T05:28:33;7.20;71.30
13093;DHT22;6612;49.568;11.000;2024-02-14T05:31:01;7.20;71.10
13093;DHT22;6612;49.568;11.000;2024-02-14T05:33:30;7.20;71.00
13093;DHT22;6612;49.568;11.000;2024-02-14T05:35:57;7.20;71.00
13093;DHT22;6612;49.568;11.000;2024-02-14T05:38:24;7.30;71.20
13093;DHT22;6612;49.568;11.000;2024-02-14T05:40:51;7.30;71.30
13093;DHT22;6612;49.568;11.000;2024-02-14T05:43:18;7.30;71.40
13093;DHT22;6612;49.568;11.000;2024-02-14T05:45:45;7.30;71.60
13093;DHT22;6612;49.568;11.000;2024-02-14T05:48:12;7.30;71.70
13093;DHT22;6612;49.568;11.000;2024-02-14T05:50:41;7.30;71.70
13093;DHT22;6612;49.568;11.000;2024-02-14T05:53:08;7.30;71.60
13093;DHT22;6612;49.568;11.000;2024-02-14T05:55:35;7.40;71.70
13093;DHT22;6612;49.568;11.000;2024-02-14T05:58:03;7.40;71.70
13093;DHT22;6612;49.568;11.000;2024-02-14T06:00:30;7.40;71.70
13093;DHT22;6612;49.568;11.000;2024-02-14T06:02:57;7.40;71.70
13093;DHT22;6612;49.568;11.000;2024-02-14T06:05:24;7.50;71.80
13093;DHT22;6612;49.568;11.000;2024-02-14T06:07:52;7.50;71.90
13093;DHT22;6612;49.568;11.000;2024-02-14T06:10:19;7.50;71.60
13093;DHT22;6612;49.568;11.000;2024-02-14T06:12:46;7.50;71.60
13093;DHT22;6612;49.568;11.000;2024-02-14T06:15:13;7.50;71.60
13093;DHT22;6612;49.568;11.000;2024-02-14T06:17:40;7.60;71.50
13093;DHT22;6612;49.568;11.000;2024-02-14T06:20:08;7.60;71.60
13093;DHT22;6612;49.568;11.000;2024-02-14T06:22:35;7.60;71.40
13093;DHT22;6612;49.568;11.000;2024-02-14T06:25:05;7.60;71.50
13093;DHT22;6612;49.568;11.000;2024-02-14T06:27:32;7.60;71.40
13093;DHT22;6612;49.568;11.000;2024-02-14T06:29:59;7.70;71.40
13093;DHT22;6612;49.568;11.000;2024-02-14T06:32:26;7.70;71.20
13093;DHT22;6612;49.568;11.000;2024-02-14T06:34:53;7.70;71.20
13093;DHT22;6612;49.568;11.000;2024-02-14T06:37:20;7.70;71.40
13093;DHT22;6612;49.568;11.000;2024-02-14T06:39:47;7.70;71.50
13093;DHT22;6612;49.568;11.000;2024-02-14T06:42:17;7.80;71.60
13093;DHT22;6612;49.568;11.000;2024-02-14T06:44:45;7.80;71.60
13093;DHT22;6612;49.568;11.000;2024-02-14T06:47:12;7.80;71.60
13093;DHT22;6612;49.568;11.000;2024-02-14T06:49:39;7.80;71.70
13093;DHT22;6612;49.568;11.000;2024-02-14T06:52:06;7.90;72.00
13093;DHT22;6612;49.568;11.000;2024-02-14T06:54:33;7.90;72.10
13093;DHT22;6612;49.568;11.000;2024-02-14T06:57:00;7.90;72.10
13093;DHT22;6612;49.568;11.000;2024-02-14T06:59:28;8.00;72.40
13093;DHT22;6612;49.568;11.000;2024-02-14T07:01:55;8.00;72.30
13093;DHT22;6612;49.568;11.000;2024-02-14T07:04:22;8.10;72.60
13093;DHT22;6612;49.568;11.000;2024-02-14T07:06:52;8.10;72.60
13093;DHT22;6612;49.568;11.000;2024-02-14T07:09:19;8.20;72.60
13093;DHT22;6612;49.568;11.000;2024-02-14T07:11:46;8.20;72.70
13093;DHT22;6612;49.568;11.000;2024-02-14T07:14:13;8.30;72.50
13093;DHT22;6612;49.568;11.000;2024-02-14T07:16:42;8.30;72.50
13093;DHT22;6612;49.568;11.000;2024-02-14T07:19:09;8.40;72.40
13093;DHT22;6612;49.568;11.000;2024-02-14T07:21:36;8.40;72.60
13093;DHT22;6612;49.568;11.000;2024-02-14T07:24:04;8.40;72.30
13093;DHT22;6612;49.568;11.000;2024-02-14T07:26:31;8.50;72.20
13093;DHT22;6612;49.568;11.000;2024-02-14T07:28:58;8.50;71.90
13093;DHT22;6612;49.568;11.000;2024-02-14T07:31:28;8.50;71.90
13093;DHT22;6612;49.568;11.000;2024-02-14T07:33:57;8.60;72.00
13093;DHT22;6612;49.568;11.000;2024-02-14T07:36:24;8.60;71.90
13093;DHT22;6612;49.568;11.000;2024-02-14T07:38:51;8.60;72.10
13093;DHT22;6612;49.568;11.000;2024-02-14T07:41:18;8.70;72.20
13093;DHT22;6612;49.568;11.000;2024-02-14T07:43:45;8.70;72.40
13093;DHT22;6612;49.568;11.000;2024-02-14T07:46:17;8.80;72.90
13093;DHT22;6612;49.568;11.000;2024-02-14T07:48:44;8.90;72.70
13093;DHT22;6612;49.568;11.000;2024-02-14T07:51:13;8.90;72.70
13093;DHT22;6612;49.568;11.000;2024-02-14T07:53:40;9.00;72.30
13093;DHT22;6612;49.568;11.000;2024-02-14T07:56:07;9.00;72.70
13093;DHT22;6612;49.568;11.000;2024-02-14T07:58:34;9.10;72.60
13093;DHT22;6612;49.568;11.000;2024-02-14T08:01:01;9.20;72.80
13093;DHT22;6612;49.568;11.000;2024-02-14T08:03:29;9.20;72.80
13093;DHT22;6612;49.568;11.000;2024-02-14T08:05:56;9.30;73.10
13093;DHT22;6612;49.568;11.000;2024-02-14T08:08:26;9.40;73.20
13093;DHT22;6612;49.568;11.000;2024-02-14T08:10:53;9.50;73.40
13093;DHT22;6612;49.568;11.000;2024-02-14T08:13:21;9.70;73.90
13093;DHT22;6612;49.568;11.000;2024-02-14T08:15:48;9.80;73.40
13093;DHT22;6612;49.568;11.000;2024-02-14T08:18:15;9.90;73.40
13093;DHT22;6612;49.568;11.000;2024-02-14T08:20:42;10.00;71.70
13093;DHT22;6612;49.568;11.000;2024-02-14T08:23:09;10.10;71.70
13093;DHT22;6612;49.568;11.000;2024-02-14T08:25:38;10.10;71.50
13093;DHT22;6612;49.568;11.000;2024-02-14T08:28:06;10.20;71.50
13093;DHT22;6612;49.568;11.000;2024-02-14T08:30:34;10.30;72.00
13093;DHT22;6612;49.568;11.000;2024-02-14T08:33:01;10.30;72.00
13093;DHT22;6612;49.568;11.000;2024-02-14T08:35:28;10.40;72.00
13093;DHT22;6612;49.568;11.000;2024-02-14T08:37:55;10.40;71.60
13093;DHT22;6612;49.568;11.000;2024-02-14T08:40:22;10.50;71.70
13093;DHT22;6612;49.568;11.000;2024-02-14T08:42:50;10.60;71.90
13093;DHT22;6612;49.568;11.000;2024-02-14T08:45:18;10.60;71.90
13093;DHT22;6612;49.568;11.000;2024-02-14T08:47:45;10.70;72.20
13093;DHT22;6612;49.568;11.000;2024-02-14T08:50:12;10.70;71.00
13093;DHT22;6612;49.568;11.000;2024-02-14T08:52:40;10.80;71.50
13093;DHT22;6612;49.568;11.000;2024-02-14T08:55:07;10.80;71.10
13093;DHT22;6612;49.568;11.000;2024-02-14T08:57:40;10.80;70.60
13093;DHT22;6612;49.568;11.000;2024-02-14T09:00:09;10.90;70.90
13093;DHT22;6612;49.568;11.000;2024-02-14T09:02:36;10.90;71.10
13093;DHT22;6612;49.568;11.000;2024-02-14T09:05:04;11.00;71.90
13093;DHT22;6612;49.568;11.000;2024-02-14T09:07:31;11.10;72.40
13093;DHT22;6612;49.568;11.000;2024-02-14T09:09:59;11.20;73.00
13093;DHT22;6612;49.568;11.000;2024-02-14T09:12:26;11.30;73.10
13093;DHT22;6612;49.568;11.000;2024-02-14T09:14:53;11.40;73.30
13093;DHT22;6612;49.568;11.000;2024-02-14T09:17:23;11.50;73.10
13093;DHT22;6612;49.568;11.000;2024-02-14T09:19:51;11.70;72.50
13093;DHT22;6612;49.568;11.000;2024-02-14T09:22:18;11.80;72.70
13093;DHT22;6612;49.568;11.000;2024-02-14T09:24:47;11.80;71.80
13093;DHT22;6612;49.568;11.000;2024-02-14T09:27:14;11.90;71.90
13093;DHT22;6612;49.568;11.000;2024-02-14T09:29:41;12.00;71.70
13093;DHT22;6612;49.568;11.000;2024-02-14T09:32:08;12.10;70.40
13093;DHT22;6612;49.568;11.000;2024-02-14T09:34:37;12.20;70.60
13093;DHT22;6612;49.568;11.000;2024-02-14T09:37:04;12.20;70.40
13093;DHT22;6612;49.568;11.000;2024-02-14T09:39:32;12.30;70.50
13093;DHT22;6612;49.568;11.000;2024-02-14T09:42:08;12.40;69.40
13093;DHT22;6612;49.568;11.000;2024-02-14T09:44:36;12.40;68.70
13093;DHT22;6612;49.568;11.000;2024-02-14T09:47:06;12.50;69.50
13093;DHT22;6612;49.568;11.000;2024-02-14T09:49:37;12.50;68.60
13093;DHT22;6612;49.568;11.000;2024-02-14T09:52:05;12.60;69.10
13093;DHT22;6612;49.568;11.000;2024-02-14T09:54:33;12.60;69.10
13093;DHT22;6612;49.568;11.000;2024-02-14T09:57:02;12.70;68.20
13093;DHT22;6612;49.568;11.000;2024-02-14T09:59:29;12.70;68.10
13093;DHT22;6612;49.568;11.000;2024-02-14T10:01:57;12.80;68.90
13093;DHT22;6612;49.568;11.000;2024-02-14T10:04:24;12.80;68.80
13093;DHT22;6612;49.568;11.000;2024-02-14T10:06:53;12.80;68.70
13093;DHT22;6612;49.568;11.000;2024-02-14T10:09:21;12.90;68.20
13093;DHT22;6612;49.568;11.000;2024-02-14T10:11:48;12.90;68.60
13093;DHT22;6612;49.568;11.000;2024-02-14T10:14:15;13.00;69.20
13093;DHT22;6612;49.568;11.000;2024-02-14T10:16:42;13.00;69.90
13093;DHT22;6612;49.568;11.000;2024-02-14T10:19:15;13.10;69.50
13093;DHT22;6612;49.568;11.000;2024-02-14T10:21:42;13.20;69.10
13093;DHT22;6612;49.568;11.000;2024-02-14T10:24:12;13.30;70.10
13093;DHT22;6612;49.568;11.000;2024-02-14T10:26:39;13.40;69.70
13093;DHT22;6612;49.568;11.000;2024-02-14T10:29:08;13.50;70.20
13093;DHT22;6612;49.568;11.000;2024-02-14T10:31:37;13.70;70.20
13093;DHT22;6612;49.568;11.000;2024-02-14T10:34:05;13.70;69.80
13093;DHT22;6612;49.568;11.000;2024-02-14T10:36:34;13.80;69.20
13093;DHT22;6612;49.568;11.000;2024-02-14T10:39:06;13.90;68.40
13093;DHT22;6612;49.568;11.000;2024-02-14T10:41:35;14.00;68.40
13093;DHT22;6612;49.568;11.000;2024-02-14T10:44:03;14.00;67.30
13093;DHT22;6612;49.568;11.000;2024-02-14T10:46:32;14.10;67.50
13093;DHT22;6612;49.568;11.000;2024-02-14T10:49:03;14.10;67.40
13093;DHT22;6612;49.568;11.000;2024-02-14T10:51:32;14.10;66.40
13093;DHT22;6612;49.568;11.000;2024-02-14T10:54:01;14.10;66.70
13093;DHT22;6612;49.568;11.000;2024-02-14T10:56:31;14.10;66.50
13093;DHT22;6612;49.568;11.000;2024-02-14T10:59:01;14.10;66.60
13093;DHT22;6612;49.568;11.000;2024-02-14T11:01:29;14.10;65.90
13093;DHT22;6612;49.568;11.000;2024-02-14T11:03:59;14.10;65.20
13093;DHT22;6612;49.568;11.000;2024-02-14T11:06:26;14.10;65.90
13093;DHT22;6612;49.568;11.000;2024-02-14T11:08:59;14.00;66.40
13093;DHT22;6612;49.568;11.000;2024-02-14T11:11:28;14.10;66.20
13093;DHT22;6612;49.568;11.000;2024-02-14T11:13:57;14.10;66.60
13093;DHT22;6612;49.568;11.000;2024-02-14T11:16:27;14.10;67.00
13093;DHT22;6612;49.568;11.000;2024-02-14T11:19:05;14.10;66.70
13093;DHT22;6612;49.568;11.000;2024-02-14T11:21:35;14.20;65.90
13093;DHT22;6612;49.568;11.000;2024-02-14T11:24:07;14.20;66.90
13093;DHT22;6612;49.568;11.000;2024-02-14T11:26:45;14.20;66.80
13093;DHT22;6612;49.568;11.000;2024-02-14T11:29:14;14.30;67.00
13093;DHT22;6612;49.568;11.000;2024-02-14T11:31:44;14.30;67.70
13093;DHT22;6612;49.568;11.000;2024-02-14T11:34:12;14.40;67.80
13093;DHT22;6612;49.568;11.000;2024-02-14T11:36:41;14.40;67.90
13093;DHT22;6612;49.568;11.000;2024-02-14T11:39:08;14.50;67.70
13093;DHT22;6612;49.568;11.000;2024-02-14T11:41:38;14.50;68.10
13093;DHT22;6612;49.568;11.000;2024-02-14T11:44:05;14.60;68.40
13093;DHT22;6612;49.568;11.000;2024-02-14T11:46:33;14.60;68.70
13093;DHT22;6612;49.568;11.000;2024-02-14T11:49:03;14.70;69.10
13093;DHT22;6612;49.568;11.000;2024-02-14T11:51:31;14.80;69.10
13093;DHT22;6612;49.568;11.000;2024-02-14T11:53:58;15.00;69.80
13093;DHT22;6612;49.568;11.000;2024-02-14T11:56:30;15.10;69.90
13093;DHT22;6612;49.568;11.000;2024-02-14T11:58:59;15.20;69.90
13093;DHT22;6612;49.568;11.000;2024-02-14T12:01:28;15.30;69.90
13093;DHT22;6612;49.568;11.000;2024-02-14T12:03:56;15.40;69.70
13093;DHT22;6612;49.568;11.000;2024-02-14T12:06:24;15.40;69.50
13093;DHT22;6612;49.568;11.000;2024-02-14T12:08:52;15.60;69.00
13093;DHT22;6612;49.568;11.000;2024-02-14T12:11:19;15.60;69.70
13093;DHT22;6612;49.568;11.000;2024-02-14T12:13:49;15.60;68.60
13093;DHT22;6612;49.568;11.000;2024-02-14T12:16:19;15.70;67.80
13093;DHT22;6612;49.568;11.000;2024-02-14T12:18:47;15.70;67.50
13093;DHT22;6612;49.568;11.000;2024-02-14T12:21:14;15.70;67.90
13093;DHT22;6612;49.568;11.000;2024-02-14T12:23:43;15.70;67.70
13093;DHT22;6612;49.568;11.000;2024-02-14T12:26:10;15.70;67.30
13093;DHT22;6612;49.568;11.000;2024-02-14T12:28:46;15.70;67.40
13093;DHT22;6612;49.568;11.000;2024-02-14T12:31:21;15.70;66.80
13093;DHT22;6612;49.568;11.000;2024-02-14T12:33:49;15.70;67.10
13093;DHT22;6612;49.568;11.000;2024-02-14T12:36:16;15.70;67.30
13093;DHT22;6612;49.568;11.000;2024-02-14T12:38:44;15.70;67.50
13093;DHT22;6612;49.568;11.000;2024-02-14T12:41:11;15.70;67.60
13093;DHT22;6612;49.568;11.000;2024-02-14T12:43:38;15.70;68.10
13093;DHT22;6612;49.568;11.000;2024-02-14T12:46:05;15.70;68.40
13093;DHT22;6612;49.568;11.000;2024-02-14T12:48:33;15.80;68.60
13093;DHT22;6612;49.568;11.000;2024-02-14T12:51:00;15.80;68.60
13093;DHT22;6612;49.568;11.000;2024-02-14T12:53:27;15.80;68.50
13093;DHT22;6612;49.568;11.000;2024-02-14T12:55:55;15.90;68.30
13093;DHT22;6612;49.568;11.000;2024-02-14T12:58:22;15.90;67.90
13093;DHT22;6612;49.568;11.000;2024-02-14T13:00:49;16.00;68.00
13093;DHT22;6612;49.568;11.000;2024-02-14T13:03:16;16.00;67.80
13093;DHT22;6612;49.568;11.000;2024-02-14T13:05:44;16.00;67.60
13093;DHT22;6612;49.568;11.000;2024-02-14T13:08:11;16.00;67.50
13093;DHT22;6612;49.568;11.000;2024-02-14T13:10:38;16.00;67.40
13093;DHT22;6612;49.568;11.000;2024-02-14T13:13:06;16.00;67.20
13093;DHT22;6612;49.568;11.000;2024-02-14T13:15:33;16.00;66.90
13093;DHT22;6612;49.568;11.000;2024-02-14T13:18:01;15.90;67.00
13093;DHT22;6612;49.568;11.000;2024-02-14T13:20:28;15.90;67.10
13093;DHT22;6612;49.568;11.000;2024-02-14T13:22:55;15.90;67.00
13093;DHT22;6612;49.568;11.000;2024-02-14T13:25:22;15.80;67.10
13093;DHT22;6612;49.568;11.000;2024-02-14T13:27:49;15.80;67.20
13093;DHT22;6612;49.568;11.000;2024-02-14T13:30:18;15.80;67.00
13093;DHT22;6612;49.568;11.000;2024-02-14T13:32:45;15.80;66.70
13093;DHT22;6612;49.568;11.000;2024-02-14T13:35:12;15.70;66.80
13093;DHT22;6612;49.568;11.000;2024-02-14T13:37:40;15.70;66.90
13093;DHT22;6612;49.568;11.000;2024-02-14T13:40:08;15.70;66.80
13093;DHT22;6612;49.568;11.000;2024-02-14T13:42:36;15.70;66.80
13093;DHT22;6612;49.568;11.000;2024-02-14T13:45:04;15.60;67.00
13093;DHT22;6612;49.568;11.000;2024-02-14T13:47:37;15.60;67.10
13093;DHT22;6612;49.568;11.000;2024-02-14T13:50:07;15.60;67.70
13093;DHT22;6612;49.568;11.000;2024-02-14T13:52:34;15.60;67.10
13093;DHT22;6612;49.568;11.000;2024-02-14T13:55:01;15.60;67.00
13093;DHT22;6612;49.568;11.000;2024-02-14T13:57:30;15.60;67.20
13093;DHT22;6612;49.568;11.000;2024-02-14T13:59:58;15.60;67.40
13093;DHT22;6612;49.568;11.000;2024-02-14T14:02:24;15.60;67.50
13093;DHT22;6612;49.568;11.000;2024-02-14T14:04:53;15.50;67.40
13093;DHT22;6612;49.568;11.000;2024-02-14T14:07:21;15.50;67.30
13093;DHT22;6612;49.568;11.000;2024-02-14T14:09:49;15.50;67.60
13093;DHT22;6612;49.568;11.000;2024-02-14T14:12:16;15.50;67.70
13093;DHT22;6612;49.568;11.000;2024-02-14T14:14:43;15.50;67.70
13093;DHT22;6612;49.568;11.000;2024-02-14T14:17:10;15.50;67.70
13093;DHT22;6612;49.568;11.000;2024-02-14T14:19:37;15.50;67.80
13093;DHT22;6612;49.568;11.000;2024-02-14T14:22:06;15.50;67.60
13093;DHT22;6612;49.568;11.000;2024-02-14T14:24:32;15.50;67.60
13093;DHT22;6612;49.568;11.000;2024-02-14T14:26:59;15.50;67.70
13093;DHT22;6612;49.568;11.000;2024-02-14T14:29:26;15.40;67.70
13093;DHT22;6612;49.568;11.000;2024-02-14T14:31:53;15.40;67.70
13093;DHT22;6612;49.568;11.000;2024-02-14T14:34:20;15.40;67.80
13093;DHT22;6612;49.568;11.000;2024-02-14T14:36:47;15.40;67.80
13093;DHT22;6612;49.568;11.000;2024-02-14T14:39:16;15.40;67.90
13093;DHT22;6612;49.568;11.000;2024-02-14T14:41:45;15.40;67.70
13093;DHT22;6612;49.568;11.000;2024-02-14T14:44:12;15.40;67.90
13093;DHT22;6612;49.568;11.000;2024-02-14T14:46:40;15.40;68.10
13093;DHT22;6612;49.568;11.000;2024-02-14T14:49:08;15.30;68.10
13093;DHT22;6612;49.568;11.000;2024-02-14T14:51:36;15.40;68.20
13093;DHT22;6612;49.568;11.000;2024-02-14T14:54:03;15.30;68.10
13093;DHT22;6612;49.568;11.000;2024-02-14T14:56:32;15.30;68.00
13093;DHT22;6612;49.568;11.000;2024-02-14T14:58:59;15.30;67.90
13093;DHT22;6612;49.568;11.000;2024-02-14T15:01:29;15.30;68.10
13093;DHT22;6612;49.568;11.000;2024-02-14T15:03:57;15.30;68.20
13093;DHT22;6612;49.568;11.000;2024-02-14T15:06:24;15.20;68.20
13093;DHT22;6612;49.568;11.000;2024-02-14T15:08:51;15.30;68.40
13093;DHT22;6612;49.568;11.000;2024-02-14T15:11:18;15.20;68.40
13093;DHT22;6612;49.568;11.000;2024-02-14T15:13:47;15.20;68.40
13093;DHT22;6612;49.568;11.000;2024-02-14T15:16:15;15.20;68.30
13093;DHT22;6612;49.568;11.000;2024-02-14T15:18:42;15.20;68.50
13093;DHT22;6612;49.568;11.000;2024-02-14T15:21:10;15.20;68.40
13093;DHT22;6612;49.568;11.000;2024-02-14T15:23:37;15.20;68.40
13093;DHT22;6612;49.568;11.000;2024-02-14T15:26:04;15.20;68.50
13093;DHT22;6612;49.568;11.000;2024-02-14T15:28:34;15.20;68.50
13093;DHT22;6612;49.568;11.000;2024-02-14T15:31:07;15.20;68.40
13093;DHT22;6612;49.568;11.000;2024-02-14T15:33:52;15.20;68.20
13093;DHT22;6612;49.568;11.000;2024-02-14T15:36:21;15.20;68.40
13093;DHT22;6612;49.568;11.000;2024-02-14T15:38:48;15.20;68.30
13093;DHT22;6612;49.568;11.000;2024-02-14T15:41:17;15.10;68.30
13093;DHT22;6612;49.568;11.000;2024-02-14T15:43:45;15.10;68.30